createdAt,value
2022-12-28T00:02:00.493Z,100.00
2022-12-28T00:04:27.106Z,100.00
2022-12-28T00:06:53.687Z,100.00
2022-12-28T00:09:20.287Z,100.00
2022-12-28T00:11:46.890Z,100.00
2022-12-28T00:14:13.460Z,100.00
2022-12-28T00:16:41.733Z,100.00
2022-12-28T00:19:14.833Z,100.00
2022-12-28T00:21:43.145Z,100.00
2022-12-28T00:24:18.839Z,100.00
2022-12-28T00:26:46.477Z,100.00
2022-12-28T00:29:13.032Z,100.00
2022-12-28T00:31:39.707Z,100.00
2022-12-28T00:34:06.492Z,100.00
2022-12-28T00:37:08.253Z,100.00
2022-12-28T00:39:44.457Z,100.00
2022-12-28T00:42:11.539Z,100.00
2022-12-28T00:45:05.002Z,100.00
2022-12-28T00:47:31.572Z,100.00
2022-12-28T00:49:58.105Z,100.00
2022-12-28T00:52:24.631Z,100.00
2022-12-28T00:55:04.484Z,100.00
2022-12-28T00:57:34.058Z,100.00
2022-12-28T01:00:00.582Z,100.00
2022-12-28T01:05:16.157Z,100.00
2022-12-28T01:07:42.763Z,100.00
2022-12-28T01:10:09.755Z,100.00
2022-12-28T01:12:38.421Z,100.00
2022-12-28T01:15:17.259Z,100.00
2022-12-28T01:17:43.922Z,100.00
2022-12-28T01:20:10.779Z,100.00
2022-12-28T01:22:37.294Z,100.00
2022-12-28T01:25:25.539Z,100.00
2022-12-28T01:28:01.425Z,100.00
2022-12-28T01:30:30.362Z,100.00
2022-12-28T01:32:59.825Z,100.00
2022-12-28T01:35:26.760Z,100.00
2022-12-28T01:37:53.325Z,100.00
2022-12-28T01:40:19.857Z,100.00
2022-12-28T01:42:48.887Z,100.00
2022-12-28T01:45:22.104Z,100.00
2022-12-28T01:59:03.586Z,100.00
2022-12-28T02:01:30.235Z,100.00
2022-12-28T02:04:11.132Z,100.00
2022-12-28T02:06:38.059Z,100.00
2022-12-28T02:09:24.122Z,100.00
2022-12-28T02:11:51.437Z,100.00
2022-12-28T02:14:20.027Z,100.00
2022-12-28T02:16:47.060Z,100.00
2022-12-28T02:19:21.332Z,100.00
2022-12-28T02:21:57.303Z,100.00
2022-12-28T02:29:06.781Z,100.00
2022-12-28T02:31:47.228Z,100.00
2022-12-28T02:34:32.555Z,100.00
2022-12-28T02:37:10.574Z,100.00
2022-12-28T02:40:50.298Z,100.00
2022-12-28T02:44:28.019Z,100.00
2022-12-28T02:47:57.954Z,100.00
2022-12-28T02:50:36.864Z,100.00
2022-12-28T02:53:24.771Z,100.00
2022-12-28T02:56:45.203Z,100.00
2022-12-28T02:59:44.998Z,100.00
2022-12-28T03:02:11.607Z,100.00
2022-12-28T03:05:08.544Z,100.00
2022-12-28T03:14:40.165Z,100.00
2022-12-28T03:17:28.528Z,100.00
2022-12-28T03:20:18.271Z,100.00
2022-12-28T03:23:40.829Z,100.00
2022-12-28T03:26:29.965Z,100.00
2022-12-28T03:29:17.785Z,100.00
2022-12-28T03:36:22.016Z,100.00
2022-12-28T03:39:02.036Z,100.00
2022-12-28T03:41:30.419Z,100.00
2022-12-28T03:45:09.364Z,100.00
2022-12-28T03:47:39.048Z,100.00
2022-12-28T03:50:06.529Z,100.00
2022-12-28T03:52:33.380Z,100.00
2022-12-28T03:55:46.264Z,100.00
2022-12-28T03:58:12.878Z,100.00
2022-12-28T04:00:39.390Z,100.00
2022-12-28T04:03:06.048Z,100.00
2022-12-28T04:05:32.923Z,100.00
2022-12-28T04:09:15.377Z,100.00
2022-12-28T04:11:41.981Z,100.00
2022-12-28T04:14:10.967Z,100.00
2022-12-28T04:16:37.971Z,100.00
2022-12-28T04:19:06.214Z,100.00
2022-12-28T04:21:32.798Z,100.00
2022-12-28T04:23:59.396Z,100.00
2022-12-28T04:26:25.963Z,100.00
2022-12-28T04:28:53.624Z,100.00
2022-12-28T04:31:20.518Z,100.00
2022-12-28T04:33:47.080Z,100.00
2022-12-28T04:36:44.945Z,100.00
2022-12-28T04:39:11.637Z,100.00
2022-12-28T04:41:41.295Z,100.00
2022-12-28T04:44:07.875Z,100.00
2022-12-28T04:46:54.738Z,100.00
2022-12-28T04:49:21.336Z,100.00
2022-12-28T04:59:54.945Z,100.00
2022-12-28T05:02:21.542Z,100.00
2022-12-28T05:04:54.059Z,100.00
2022-12-28T05:07:48.802Z,100.00
2022-12-28T05:10:15.315Z,100.00
2022-12-28T05:12:41.837Z,100.00
2022-12-28T05:15:08.892Z,100.00
2022-12-28T05:17:35.483Z,100.00
2022-12-28T05:20:02.575Z,100.00
2022-12-28T05:22:29.146Z,100.00
2022-12-28T05:25:58.019Z,100.00
2022-12-28T05:28:36.698Z,100.00
2022-12-28T05:31:08.171Z,100.00
2022-12-28T05:33:35.917Z,100.00
2022-12-28T05:40:52.819Z,100.00
2022-12-28T05:47:20.395Z,100.00
2022-12-28T05:53:29.267Z,100.00
2022-12-28T05:56:10.805Z,100.00
2022-12-28T05:59:33.821Z,100.00
2022-12-28T06:02:00.450Z,100.00
2022-12-28T06:04:27.226Z,100.00
2022-12-28T06:06:54.408Z,100.00
2022-12-28T06:09:21.360Z,100.00
2022-12-28T06:12:56.657Z,100.00
2022-12-28T06:15:23.194Z,100.00
2022-12-28T06:17:53.460Z,100.00
2022-12-28T06:20:19.990Z,100.00
2022-12-28T06:22:46.554Z,100.00
2022-12-28T06:25:41.032Z,100.00
2022-12-28T06:28:07.573Z,100.00
2022-12-28T06:30:50.489Z,100.00
2022-12-28T06:33:18.949Z,100.00
2022-12-28T06:35:45.469Z,100.00
2022-12-28T06:42:01.068Z,100.00
2022-12-28T06:44:32.189Z,100.00
2022-12-28T06:47:32.307Z,100.00
2022-12-28T06:50:09.408Z,100.00
2022-12-28T06:52:35.927Z,100.00
2022-12-28T07:01:17.977Z,100.00
2022-12-28T07:03:45.940Z,100.00
2022-12-28T07:06:44.437Z,100.00
2022-12-28T07:11:56.492Z,100.00
2022-12-28T07:14:23.284Z,100.00
2022-12-28T07:24:39.640Z,100.00
2022-12-28T07:27:06.080Z,100.00
2022-12-28T07:30:19.465Z,100.00
2022-12-28T07:36:28.152Z,100.00
2022-12-28T07:38:54.918Z,100.00
2022-12-28T07:41:30.647Z,100.00
2022-12-28T07:47:18.182Z,100.00
2022-12-28T07:54:31.632Z,100.00
2022-12-28T07:57:36.135Z,100.00
2022-12-28T08:07:49.875Z,100.00
2022-12-28T08:11:03.584Z,100.00
2022-12-28T08:24:25.528Z,100.00
2022-12-28T08:26:58.673Z,100.00
2022-12-28T08:30:15.044Z,100.00
2022-12-28T08:32:41.692Z,100.00
2022-12-28T08:35:08.564Z,100.00
2022-12-28T08:37:35.500Z,100.00
2022-12-28T08:43:16.884Z,100.00
2022-12-28T08:49:36.298Z,100.00
2022-12-28T08:52:18.840Z,100.00
2022-12-28T08:58:16.706Z,100.00
2022-12-28T09:03:29.743Z,100.00
2022-12-28T09:09:27.464Z,100.00
2022-12-28T09:11:56.673Z,100.00
2022-12-28T09:21:13.592Z,100.00
2022-12-28T09:23:44.014Z,100.00
2022-12-28T09:30:05.656Z,100.00
2022-12-28T09:32:32.217Z,100.00
2022-12-28T09:38:22.897Z,100.00
2022-12-28T09:52:08.261Z,100.00
2022-12-28T09:57:03.314Z,100.00
2022-12-28T09:58:16.514Z,100.00
2022-12-28T10:00:47.090Z,100.00
2022-12-28T10:03:23.081Z,100.00
2022-12-28T10:06:04.397Z,100.00
2022-12-28T10:08:45.546Z,100.00
2022-12-28T10:11:15.350Z,100.00
2022-12-28T10:13:57.160Z,100.00
2022-12-28T10:16:25.116Z,100.00
2022-12-28T10:18:52.125Z,100.00
2022-12-28T10:21:20.550Z,100.00
2022-12-28T10:24:29.000Z,100.00
2022-12-28T10:26:36.978Z,100.00
2022-12-28T10:29:04.836Z,100.00
2022-12-28T10:31:36.186Z,100.00
2022-12-28T10:34:17.595Z,99.41
2022-12-28T10:36:44.884Z,94.26
2022-12-28T10:39:16.858Z,91.28
2022-12-28T10:41:45.609Z,91.90
2022-12-28T10:54:28.173Z,85.11
2022-12-28T10:56:57.229Z,82.48
2022-12-28T10:59:28.289Z,71.19
2022-12-28T11:02:13.347Z,65.40
2022-12-28T11:04:52.149Z,60.63
2022-12-28T11:07:27.068Z,66.72
2022-12-28T11:09:53.491Z,65.25
2022-12-28T11:12:26.495Z,66.41
2022-12-28T11:14:53.108Z,63.56
2022-12-28T11:17:28.812Z,65.60
2022-12-28T11:20:01.334Z,66.77
2022-12-28T11:22:29.946Z,66.36
2022-12-28T11:25:00.417Z,66.18
2022-12-28T11:27:27.799Z,67.98
2022-12-28T11:29:55.599Z,71.93
2022-12-28T11:32:36.114Z,70.18
2022-12-28T11:35:03.246Z,67.83
2022-12-28T11:37:29.863Z,66.99
2022-12-28T11:39:59.621Z,69.21
2022-12-28T11:42:41.328Z,69.23
2022-12-28T11:45:35.812Z,67.94
2022-12-28T11:48:43.502Z,68.65
2022-12-28T11:51:20.604Z,68.40
2022-12-28T11:53:47.199Z,67.35
2022-12-28T11:56:22.762Z,68.09
2022-12-28T11:59:39.326Z,69.74
2022-12-28T12:02:08.418Z,69.40
2022-12-28T12:04:43.531Z,69.62
2022-12-28T12:07:45.091Z,69.22
2022-12-28T12:10:35.796Z,74.42
2022-12-28T12:13:24.577Z,71.47
2022-12-28T12:16:28.423Z,70.49
2022-12-28T12:20:12.320Z,65.09
2022-12-28T12:22:55.296Z,59.71
2022-12-28T12:25:54.160Z,55.25
2022-12-28T12:28:40.713Z,54.31
2022-12-28T12:33:58.629Z,54.24
2022-12-28T12:36:43.946Z,54.45
2022-12-28T12:39:16.619Z,53.81
2022-12-28T12:41:53.161Z,51.24
2022-12-28T12:44:30.268Z,50.50
2022-12-28T12:47:15.826Z,50.54
2022-12-28T12:49:52.244Z,48.87
2022-12-28T12:52:28.139Z,52.17
2022-12-28T12:55:10.060Z,55.53
2022-12-28T12:57:42.826Z,54.57
2022-12-28T13:00:19.707Z,55.26
2022-12-28T13:02:49.324Z,55.42
2022-12-28T13:05:32.183Z,56.13
2022-12-28T13:08:01.313Z,57.28
2022-12-28T13:10:33.796Z,60.83
2022-12-28T13:13:03.419Z,60.92
2022-12-28T13:15:30.786Z,61.27
2022-12-28T13:21:12.308Z,61.17
2022-12-28T13:23:44.801Z,63.10
2022-12-28T13:26:13.948Z,63.00
2022-12-28T13:28:50.892Z,67.13
2022-12-28T13:31:18.838Z,70.35
2022-12-28T13:34:12.859Z,72.42
2022-12-28T13:36:54.639Z,74.30
2022-12-28T13:39:21.182Z,75.02
2022-12-28T13:42:00.124Z,74.94
2022-12-28T13:44:26.643Z,78.21
2022-12-28T13:47:18.845Z,80.55
2022-12-28T13:50:00.658Z,82.17
2022-12-28T13:53:02.642Z,83.57
2022-12-28T13:55:34.635Z,85.64
2022-12-28T13:58:07.535Z,84.94
2022-12-28T14:00:36.712Z,87.21
2022-12-28T14:03:08.914Z,88.68
2022-12-28T14:05:35.614Z,89.47
2022-12-28T14:08:06.241Z,90.69
2022-12-28T14:10:35.607Z,90.23
2022-12-28T14:13:03.683Z,91.44
2022-12-28T14:15:35.856Z,92.81
2022-12-28T14:18:07.938Z,95.74
2022-12-28T14:20:49.879Z,96.92
2022-12-28T14:23:29.687Z,100.00
2022-12-28T14:25:57.735Z,100.00
2022-12-28T14:28:34.599Z,100.00
2022-12-28T14:31:10.376Z,100.00
2022-12-28T14:33:41.778Z,100.00
2022-12-28T14:36:18.275Z,100.00
2022-12-28T14:38:49.913Z,100.00
2022-12-28T14:41:20.879Z,100.00
2022-12-28T14:43:54.766Z,100.00
2022-12-28T14:46:38.977Z,100.00
2022-12-28T14:49:32.537Z,100.00
2022-12-28T14:52:08.329Z,100.00
2022-12-28T14:54:44.021Z,100.00
2022-12-28T14:57:33.299Z,100.00
2022-12-28T15:00:22.068Z,100.00
2022-12-28T15:02:49.029Z,100.00
2022-12-28T15:05:35.938Z,100.00
2022-12-28T15:08:14.498Z,100.00
2022-12-28T15:10:56.420Z,100.00
2022-12-28T15:13:25.674Z,100.00
2022-12-28T15:16:06.873Z,100.00
2022-12-28T15:18:38.458Z,100.00
2022-12-28T15:21:05.957Z,100.00
2022-12-28T15:23:33.473Z,100.00
2022-12-28T15:26:06.297Z,100.00
2022-12-28T15:28:32.990Z,100.00
2022-12-28T15:30:59.551Z,100.00
2022-12-28T15:33:26.607Z,100.00
2022-12-28T15:36:05.028Z,100.00
2022-12-28T15:38:32.160Z,100.00
2022-12-28T15:40:58.931Z,100.00
2022-12-28T15:43:25.478Z,100.00
2022-12-28T15:45:56.470Z,100.00
2022-12-28T15:48:23.418Z,100.00
2022-12-28T15:50:50.482Z,100.00
2022-12-28T15:53:17.560Z,100.00
2022-12-28T15:55:44.101Z,100.00
2022-12-28T15:58:10.666Z,100.00
2022-12-28T16:00:39.479Z,100.00
2022-12-28T16:03:09.388Z,100.00
2022-12-28T16:05:36.625Z,100.00
2022-12-28T16:08:03.214Z,100.00
2022-12-28T16:10:29.739Z,100.00
2022-12-28T16:12:56.770Z,100.00
2022-12-28T16:15:23.328Z,100.00
2022-12-28T16:17:56.852Z,100.00
2022-12-28T16:20:23.980Z,100.00
2022-12-28T16:22:50.558Z,100.00
2022-12-28T16:25:17.522Z,100.00
2022-12-28T16:27:44.312Z,100.00
2022-12-28T16:30:11.316Z,100.00
2022-12-28T16:32:37.861Z,100.00
2022-12-28T16:35:05.051Z,100.00
2022-12-28T16:37:31.701Z,100.00
2022-12-28T16:39:58.212Z,100.00
2022-12-28T16:42:24.692Z,100.00
2022-12-28T16:44:51.356Z,100.00
2022-12-28T16:47:17.829Z,100.00
2022-12-28T16:49:44.380Z,100.00
2022-12-28T16:52:10.952Z,100.00
2022-12-28T16:54:37.471Z,100.00
2022-12-28T16:57:04.071Z,100.00
2022-12-28T16:59:30.755Z,100.00
2022-12-28T17:01:58.931Z,100.00
2022-12-28T17:04:25.970Z,100.00
2022-12-28T17:06:53.118Z,100.00
2022-12-28T17:09:21.028Z,100.00
2022-12-28T17:11:49.237Z,100.00
2022-12-28T17:14:29.128Z,100.00
2022-12-28T17:17:02.919Z,100.00
2022-12-28T17:19:29.583Z,100.00
2022-12-28T17:21:56.085Z,100.00
2022-12-28T17:24:22.629Z,100.00
2022-12-28T17:26:49.212Z,100.00
2022-12-28T17:29:15.749Z,100.00
2022-12-28T17:31:43.786Z,100.00
2022-12-28T17:34:11.068Z,100.00
2022-12-28T17:36:37.610Z,100.00
2022-12-28T17:39:04.188Z,100.00
2022-12-28T17:41:30.705Z,100.00
2022-12-28T17:44:00.505Z,100.00
2022-12-28T17:46:29.432Z,100.00
2022-12-28T17:48:58.080Z,100.00
2022-12-28T17:51:26.356Z,100.00
2022-12-28T17:53:55.307Z,100.00
2022-12-28T17:56:22.084Z,100.00
2022-12-28T17:58:49.505Z,100.00
2022-12-28T18:01:16.309Z,100.00
2022-12-28T18:03:43.315Z,100.00
2022-12-28T18:06:10.110Z,100.00
2022-12-28T18:08:36.662Z,100.00
2022-12-28T18:11:03.227Z,100.00
2022-12-28T18:13:30.165Z,100.00
2022-12-28T18:15:56.893Z,100.00
2022-12-28T18:18:23.418Z,100.00
2022-12-28T18:21:01.416Z,100.00
2022-12-28T18:23:29.008Z,100.00
2022-12-28T18:26:07.598Z,100.00
2022-12-28T18:28:34.864Z,100.00
2022-12-28T18:31:02.780Z,100.00
2022-12-28T18:33:31.166Z,100.00
2022-12-28T18:35:59.037Z,100.00
2022-12-28T18:38:25.527Z,100.00
2022-12-28T18:40:57.604Z,100.00
2022-12-28T18:43:27.032Z,100.00
2022-12-28T18:45:54.735Z,100.00
2022-12-28T18:48:21.602Z,100.00
2022-12-28T18:50:54.276Z,100.00
2022-12-28T18:53:21.143Z,100.00
2022-12-28T18:55:47.557Z,100.00
2022-12-28T18:58:13.948Z,100.00
2022-12-28T19:00:40.335Z,100.00
2022-12-28T19:03:06.953Z,100.00
2022-12-28T19:05:33.484Z,100.00
2022-12-28T19:07:59.884Z,100.00
2022-12-28T19:10:26.249Z,100.00
2022-12-28T19:12:52.727Z,100.00
2022-12-28T19:15:19.237Z,100.00
2022-12-28T19:17:45.708Z,100.00
2022-12-28T19:20:12.167Z,100.00
2022-12-28T19:22:38.704Z,100.00
2022-12-28T19:25:05.418Z,100.00
2022-12-28T19:27:31.982Z,100.00
2022-12-28T19:29:58.411Z,100.00
2022-12-28T19:32:24.831Z,100.00
2022-12-28T19:34:51.367Z,100.00
2022-12-28T19:37:17.831Z,100.00
2022-12-28T19:39:44.315Z,100.00
2022-12-28T19:42:10.749Z,100.00
2022-12-28T19:44:37.331Z,100.00
2022-12-28T19:47:03.820Z,100.00
2022-12-28T19:49:30.380Z,100.00
2022-12-28T19:51:57.138Z,100.00
2022-12-28T19:54:23.898Z,100.00
2022-12-28T19:56:50.345Z,100.00
2022-12-28T19:59:17.027Z,100.00
2022-12-28T20:01:43.511Z,100.00
2022-12-28T20:04:14.038Z,100.00
2022-12-28T20:06:45.001Z,100.00
2022-12-28T20:09:13.858Z,100.00
2022-12-28T20:11:40.859Z,100.00
2022-12-28T20:14:07.870Z,100.00
2022-12-28T20:16:35.092Z,100.00
2022-12-28T20:19:01.943Z,100.00
2022-12-28T20:21:28.958Z,100.00
2022-12-28T20:23:55.516Z,100.00
2022-12-28T20:26:28.321Z,100.00
2022-12-28T20:28:56.838Z,100.00
2022-12-28T20:31:24.139Z,100.00
2022-12-28T20:33:51.184Z,100.00
2022-12-28T20:36:20.309Z,100.00
2022-12-28T20:38:47.829Z,100.00
2022-12-28T20:41:39.335Z,100.00
2022-12-28T20:44:11.486Z,100.00
2022-12-28T20:46:38.603Z,100.00
2022-12-28T20:49:06.053Z,100.00
2022-12-28T20:51:33.805Z,100.00
2022-12-28T20:54:00.406Z,100.00
2022-12-28T20:56:27.376Z,100.00
2022-12-28T20:58:54.061Z,100.00
2022-12-28T21:01:21.296Z,100.00
2022-12-28T21:03:47.949Z,100.00
2022-12-28T21:06:14.806Z,100.00
2022-12-28T21:08:41.539Z,100.00
2022-12-28T21:11:08.141Z,100.00
2022-12-28T21:13:38.000Z,100.00
2022-12-28T21:16:08.442Z,100.00
2022-12-28T21:18:35.624Z,100.00
2022-12-28T21:21:02.659Z,100.00
2022-12-28T21:23:29.996Z,100.00
2022-12-28T21:26:04.294Z,100.00
2022-12-28T21:28:31.103Z,100.00
2022-12-28T21:30:58.333Z,100.00
2022-12-28T21:33:24.846Z,100.00
2022-12-28T21:36:03.492Z,100.00
2022-12-28T21:38:31.512Z,100.00
2022-12-28T21:41:05.430Z,100.00
2022-12-28T21:43:32.538Z,100.00
2022-12-28T21:46:12.265Z,100.00
2022-12-28T21:48:39.758Z,100.00
2022-12-28T21:51:31.277Z,100.00
2022-12-28T21:54:03.647Z,100.00
2022-12-28T21:56:31.404Z,100.00
2022-12-28T21:58:58.531Z,100.00
2022-12-28T22:01:43.989Z,100.00
2022-12-28T22:04:34.915Z,100.00
2022-12-28T22:07:01.692Z,100.00
2022-12-28T22:09:47.251Z,100.00
2022-12-28T22:12:33.571Z,100.00
2022-12-28T22:15:25.795Z,100.00
2022-12-28T22:18:07.295Z,100.00
2022-12-28T22:20:36.343Z,100.00
2022-12-28T22:23:04.141Z,100.00
2022-12-28T22:25:31.202Z,100.00
2022-12-28T22:27:58.903Z,100.00
2022-12-28T22:30:26.703Z,100.00
2022-12-28T22:32:53.728Z,100.00
2022-12-28T22:35:22.706Z,100.00
2022-12-28T22:37:49.421Z,100.00
2022-12-28T22:40:15.996Z,100.00
2022-12-28T22:42:48.313Z,100.00
2022-12-28T22:45:17.790Z,100.00
2022-12-28T22:47:44.966Z,100.00
2022-12-28T22:50:13.410Z,100.00
2022-12-28T22:52:41.150Z,100.00
2022-12-28T22:55:08.475Z,100.00
2022-12-28T22:57:35.034Z,100.00
2022-12-28T23:00:01.621Z,100.00
2022-12-28T23:02:31.331Z,100.00
2022-12-28T23:04:58.015Z,100.00
2022-12-28T23:07:24.571Z,100.00
2022-12-28T23:09:51.143Z,100.00
2022-12-28T23:12:17.729Z,100.00
2022-12-28T23:15:02.790Z,100.00
2022-12-28T23:17:29.437Z,100.00
2022-12-28T23:20:14.406Z,100.00
2022-12-28T23:22:59.298Z,100.00
2022-12-28T23:25:44.832Z,100.00
2022-12-28T23:28:15.311Z,100.00
2022-12-28T23:30:47.878Z,100.00
2022-12-28T23:33:15.876Z,100.00
2022-12-28T23:35:42.563Z,100.00
2022-12-28T23:38:09.113Z,100.00
2022-12-28T23:40:40.950Z,100.00
2022-12-28T23:43:08.108Z,100.00
2022-12-28T23:45:35.355Z,100.00
2022-12-28T23:48:02.132Z,100.00
2022-12-28T23:50:28.678Z,100.00
2022-12-28T23:52:55.200Z,100.00
2022-12-28T23:55:21.786Z,100.00
2022-12-28T23:57:48.280Z,100.00
